createdAt,value
2022-11-03T05:16:07.073Z,7.30
2022-11-03T05:18:37.891Z,7.30
2022-11-03T05:21:08.768Z,7.30
2022-11-03T05:23:40.835Z,7.30
2022-11-03T05:26:16.303Z,7.30
2022-11-03T05:28:48.398Z,7.30
2022-11-03T05:31:25.263Z,7.20
2022-11-03T05:33:54.828Z,7.20
2022-11-03T05:36:25.683Z,7.30
2022-11-03T05:38:57.433Z,7.20
2022-11-03T05:41:28.529Z,7.10
2022-11-03T05:44:00.505Z,7.10
2022-11-03T05:46:32.839Z,7.20
2022-11-03T05:49:03.753Z,7.20
2022-11-03T05:51:35.875Z,7.20
2022-11-03T05:54:14.308Z,7.20
2022-11-03T05:56:44.805Z,7.30
2022-11-03T05:59:14.765Z,7.30
2022-11-03T06:01:44.211Z,7.30
2022-11-03T06:04:21.606Z,7.10
2022-11-03T06:06:53.770Z,7.10
2022-11-03T06:09:24.820Z,7.10
2022-11-03T06:11:55.551Z,7.00
2022-11-03T06:14:25.871Z,6.80
2022-11-03T06:16:58.271Z,6.40
2022-11-03T06:19:30.402Z,6.10
2022-11-03T06:22:03.980Z,6.20
2022-11-03T06:24:33.927Z,6.50
2022-11-03T06:27:01.929Z,6.60
2022-11-03T06:29:33.626Z,6.80
2022-11-03T06:32:03.409Z,6.80
2022-11-03T06:34:39.297Z,6.60
2022-11-03T06:37:19.170Z,6.30
2022-11-03T06:39:48.405Z,6.30
2022-11-03T06:42:18.211Z,6.60
2022-11-03T06:44:48.596Z,6.90
2022-11-03T06:47:29.762Z,7.00
2022-11-03T06:50:00.480Z,6.90
2022-11-03T06:52:32.018Z,7.00
2022-11-03T06:55:22.862Z,7.10
2022-11-03T06:57:55.132Z,7.30
2022-11-03T07:00:34.059Z,7.20
2022-11-03T07:03:09.938Z,7.40
2022-11-03T07:05:39.010Z,7.40
2022-11-03T07:08:22.447Z,7.30
2022-11-03T07:10:51.744Z,7.40
2022-11-03T07:13:24.747Z,7.40
2022-11-03T07:15:53.437Z,7.60
2022-11-03T07:18:26.924Z,7.70
2022-11-03T07:20:56.954Z,7.80
2022-11-03T07:23:29.332Z,7.70
2022-11-03T07:26:00.739Z,7.80
2022-11-03T07:28:34.628Z,7.70
2022-11-03T07:31:16.229Z,7.80
2022-11-03T07:33:47.181Z,8.00
2022-11-03T07:36:20.004Z,8.20
2022-11-03T07:38:52.840Z,8.40
2022-11-03T07:41:25.772Z,8.60
2022-11-03T07:44:00.421Z,8.90
2022-11-03T07:46:28.476Z,8.90
2022-11-03T07:48:59.929Z,9.00
2022-11-03T07:51:31.317Z,9.10
2022-11-03T07:54:04.960Z,9.20
2022-11-03T07:56:38.948Z,9.20
2022-11-03T07:59:17.466Z,9.30
2022-11-03T08:01:49.142Z,9.40
2022-11-03T08:04:23.443Z,9.50
2022-11-03T08:06:52.316Z,9.60
2022-11-03T08:09:21.160Z,9.60
2022-11-03T08:11:49.947Z,9.90
2022-11-03T08:14:18.231Z,10.10
2022-11-03T08:16:46.304Z,10.40
2022-11-03T08:19:14.329Z,10.70
2022-11-03T08:21:43.725Z,11.20
2022-11-03T08:24:11.732Z,11.70
2022-11-03T08:26:39.710Z,12.20
2022-11-03T08:29:07.692Z,12.60
2022-11-03T08:31:35.670Z,13.00
2022-11-03T08:34:03.697Z,13.40
2022-11-03T08:36:31.746Z,13.80
2022-11-03T08:39:01.059Z,14.20
2022-11-03T08:41:29.109Z,14.20
2022-11-03T08:43:57.094Z,14.40
2022-11-03T08:46:25.108Z,14.30
2022-11-03T08:48:53.522Z,14.50
2022-11-03T08:51:21.569Z,14.90
2022-11-03T08:53:50.764Z,15.30
2022-11-03T08:56:22.368Z,15.60
2022-11-03T08:58:50.847Z,16.30
2022-11-03T09:01:18.990Z,16.20
2022-11-03T09:03:47.113Z,16.30
2022-11-03T09:06:15.170Z,16.10
2022-11-03T09:11:32.485Z,14.40
2022-11-03T09:14:00.663Z,14.40
2022-11-03T09:16:28.708Z,14.20
2022-11-03T09:18:56.678Z,13.70
2022-11-03T09:21:24.691Z,13.70
2022-11-03T09:23:52.688Z,14.10
2022-11-03T09:26:21.704Z,13.90
2022-11-03T09:28:51.020Z,14.20
2022-11-03T09:31:19.546Z,14.20
2022-11-03T09:33:47.559Z,13.90
2022-11-03T09:36:15.801Z,13.80
2022-11-03T09:38:43.806Z,14.00
2022-11-03T09:41:26.409Z,13.90
2022-11-03T09:44:04.882Z,13.70
2022-11-03T09:46:35.134Z,13.80
2022-11-03T09:49:04.473Z,14.50
2022-11-03T09:51:33.797Z,14.90
2022-11-03T09:54:06.509Z,14.90
2022-11-03T09:56:37.865Z,15.00
2022-11-03T09:59:17.443Z,15.20
2022-11-03T10:01:49.653Z,15.50
2022-11-03T10:04:21.200Z,15.90
2022-11-03T10:06:49.195Z,15.40
2022-11-03T10:09:20.629Z,14.90
2022-11-03T10:11:49.299Z,15.30
2022-11-03T10:14:19.799Z,15.30
2022-11-03T10:17:00.220Z,15.80
2022-11-03T10:19:28.836Z,15.60
2022-11-03T10:21:56.917Z,15.60
2022-11-03T10:24:26.356Z,15.20
2022-11-03T10:26:55.623Z,14.80
2022-11-03T10:29:26.684Z,14.90
2022-11-03T10:31:58.239Z,14.70
2022-11-03T10:34:34.016Z,14.20
2022-11-03T10:37:21.702Z,14.20
2022-11-03T10:39:51.272Z,14.30
2022-11-03T10:42:22.274Z,14.10
2022-11-03T10:44:54.471Z,13.80
2022-11-03T10:47:34.592Z,14.10
2022-11-03T10:50:21.597Z,13.90
2022-11-03T10:52:50.469Z,13.50
2022-11-03T10:55:23.804Z,13.40
2022-11-03T10:57:55.411Z,13.20
2022-11-03T11:00:25.566Z,13.10
2022-11-03T11:03:00.220Z,13.10
2022-11-03T11:05:28.614Z,13.00
2022-11-03T11:07:57.010Z,13.40
2022-11-03T11:10:28.609Z,13.40
2022-11-03T11:13:24.391Z,12.90
2022-11-03T11:15:55.964Z,12.80
2022-11-03T11:19:05.937Z,13.00
2022-11-03T11:22:03.400Z,13.10
2022-11-03T11:25:03.444Z,13.10
2022-11-03T11:28:12.865Z,13.10
2022-11-03T11:31:37.018Z,13.00
2022-11-03T11:34:41.122Z,13.10
2022-11-03T11:37:36.191Z,13.40
2022-11-03T11:40:14.058Z,13.10
2022-11-03T11:43:26.261Z,13.20
2022-11-03T11:46:40.745Z,13.10
2022-11-03T11:49:20.506Z,12.90
2022-11-03T11:51:50.066Z,13.10
2022-11-03T11:54:21.685Z,12.90
2022-11-03T11:56:51.012Z,13.10
2022-11-03T11:59:25.689Z,13.20
2022-11-03T12:01:57.015Z,13.10
2022-11-03T12:04:29.166Z,13.00
2022-11-03T12:06:58.624Z,13.00
2022-11-03T12:09:29.107Z,12.90
2022-11-03T12:12:03.507Z,13.10
2022-11-03T12:14:38.233Z,12.80
2022-11-03T12:17:35.045Z,12.90
2022-11-03T12:20:35.971Z,13.00
2022-11-03T12:23:05.289Z,12.60
2022-11-03T12:25:40.132Z,12.60
2022-11-03T12:28:08.649Z,12.60
2022-11-03T12:30:40.026Z,12.80
2022-11-03T12:33:08.957Z,12.80
2022-11-03T12:35:37.146Z,12.60
2022-11-03T12:38:06.715Z,12.60
2022-11-03T12:40:34.686Z,12.40
2022-11-03T12:43:02.693Z,12.50
2022-11-03T12:45:30.670Z,12.50
2022-11-03T12:47:58.642Z,12.50
2022-11-03T12:50:26.640Z,12.60
2022-11-03T12:52:54.611Z,12.70
2022-11-03T12:55:23.948Z,12.60
2022-11-03T12:57:51.963Z,12.60
2022-11-03T13:00:20.030Z,12.50
2022-11-03T13:02:49.603Z,12.70
2022-11-03T13:05:17.809Z,12.70
2022-11-03T13:07:45.777Z,12.70
2022-11-03T13:10:13.754Z,12.80
2022-11-03T13:12:44.850Z,12.80
2022-11-03T13:15:15.767Z,12.90
2022-11-03T13:18:12.947Z,13.00
2022-11-03T13:20:32.735Z,12.80
2022-11-03T13:23:00.838Z,12.80
2022-11-03T13:25:29.591Z,12.70
2022-11-03T13:27:59.642Z,12.60
2022-11-03T13:30:28.599Z,12.40
2022-11-03T13:32:56.661Z,12.40
2022-11-03T13:35:24.878Z,12.70
2022-11-03T13:37:52.952Z,12.50
2022-11-03T13:43:11.749Z,12.60
2022-11-03T13:45:40.142Z,12.50
2022-11-03T13:50:56.737Z,12.40
2022-11-03T13:56:20.854Z,12.50
2022-11-03T14:01:40.915Z,12.80
2022-11-03T14:06:57.806Z,12.80
2022-11-03T14:09:26.316Z,12.80
2022-11-03T14:12:11.841Z,13.00
2022-11-03T14:14:41.217Z,12.80
2022-11-03T14:17:09.695Z,12.80
2022-11-03T14:19:43.092Z,12.70
2022-11-03T14:22:14.242Z,12.80
2022-11-03T14:24:42.233Z,12.50
2022-11-03T14:27:10.231Z,12.40
2022-11-03T14:29:38.273Z,12.50
2022-11-03T14:32:08.218Z,12.50
2022-11-03T14:34:36.646Z,12.50
2022-11-03T14:37:04.740Z,12.50
2022-11-03T14:39:33.146Z,12.50
2022-11-03T14:42:04.187Z,12.60
2022-11-03T14:44:33.729Z,12.40
2022-11-03T14:47:04.751Z,12.40
2022-11-03T14:49:35.478Z,12.50
2022-11-03T14:52:07.172Z,12.50
2022-11-03T14:54:36.235Z,12.60
2022-11-03T14:57:05.155Z,12.70
2022-11-03T14:59:35.051Z,12.50
2022-11-03T15:02:04.831Z,12.70
2022-11-03T15:04:34.452Z,12.60
2022-11-03T15:07:05.179Z,12.80
2022-11-03T15:09:36.385Z,12.80
2022-11-03T15:12:04.791Z,12.80
2022-11-03T15:14:32.785Z,12.70
2022-11-03T15:17:00.736Z,12.50
2022-11-03T15:19:28.859Z,12.30
2022-11-03T15:21:58.170Z,12.20
2022-11-03T15:27:14.926Z,12.20
2022-11-03T15:29:42.894Z,12.30
2022-11-03T15:32:11.092Z,12.30
2022-11-03T15:34:39.063Z,12.40
2022-11-03T15:37:08.378Z,12.30
2022-11-03T15:39:36.378Z,12.30
2022-11-03T15:42:04.641Z,12.20
2022-11-03T15:44:32.594Z,12.30
2022-11-03T15:47:00.605Z,12.00
2022-11-03T15:49:28.680Z,12.10
2022-11-03T15:51:56.664Z,12.00
2022-11-03T15:54:26.072Z,12.10
2022-11-03T15:56:54.325Z,12.00
2022-11-03T15:59:22.448Z,11.90
2022-11-03T16:02:03.489Z,11.80
2022-11-03T16:04:41.360Z,11.80
2022-11-03T16:07:09.431Z,11.90
2022-11-03T16:09:38.893Z,11.80
2022-11-03T16:12:07.691Z,11.70
2022-11-03T16:14:35.661Z,12.00
2022-11-03T16:17:05.077Z,12.10
2022-11-03T16:19:33.169Z,11.90
2022-11-03T16:22:02.801Z,11.70
2022-11-03T16:24:35.115Z,11.60
2022-11-03T16:27:05.241Z,11.60
2022-11-03T16:29:33.340Z,11.60
2022-11-03T16:32:01.307Z,11.60
2022-11-03T16:34:30.649Z,11.50
2022-11-03T16:36:58.667Z,11.50
2022-11-03T16:39:30.756Z,11.70
2022-11-03T16:41:58.918Z,11.60
2022-11-03T16:44:28.606Z,11.40
2022-11-03T16:46:56.596Z,11.50
2022-11-03T16:49:24.575Z,11.80
2022-11-03T16:51:52.818Z,11.80
2022-11-03T16:54:20.833Z,11.70
2022-11-03T16:56:54.362Z,11.50
2022-11-03T16:59:24.266Z,11.50
2022-11-03T17:01:53.718Z,11.60
2022-11-03T17:04:21.814Z,11.50
2022-11-03T17:06:49.855Z,11.60
2022-11-03T17:09:17.848Z,11.60
2022-11-03T17:11:45.806Z,11.50
2022-11-03T17:14:14.248Z,11.50
2022-11-03T17:16:45.394Z,11.40
2022-11-03T17:19:15.175Z,11.20
2022-11-03T17:21:43.210Z,11.20
2022-11-03T17:24:13.157Z,11.30
2022-11-03T17:26:53.068Z,11.30
2022-11-03T17:29:24.937Z,11.20
2022-11-03T17:31:52.909Z,11.20
2022-11-03T17:34:25.158Z,11.10
2022-11-03T17:36:54.224Z,10.90
2022-11-03T17:39:29.589Z,11.00
2022-11-03T17:42:14.638Z,10.90
2022-11-03T17:44:43.330Z,11.00
2022-11-03T17:47:11.442Z,11.20
2022-11-03T17:49:40.776Z,11.20
2022-11-03T17:52:14.642Z,11.20
2022-11-03T17:54:42.840Z,11.30
2022-11-03T17:57:17.183Z,11.20
2022-11-03T17:59:48.404Z,11.20
2022-11-03T18:02:18.774Z,11.30
2022-11-03T18:04:48.739Z,11.20
2022-11-03T18:07:24.651Z,11.20
2022-11-03T18:09:53.274Z,11.30
2022-11-03T18:12:43.783Z,11.30
2022-11-03T18:15:18.816Z,11.40
2022-11-03T18:17:47.628Z,11.20
2022-11-03T18:20:20.548Z,11.20
2022-11-03T18:22:50.336Z,11.40
2022-11-03T18:25:22.765Z,11.40
2022-11-03T18:27:50.758Z,11.60
2022-11-03T18:30:18.979Z,11.40
2022-11-03T18:32:48.183Z,11.40
2022-11-03T18:35:22.739Z,11.50
2022-11-03T18:37:51.837Z,11.40
2022-11-03T18:40:20.402Z,11.40
2022-11-03T18:42:48.427Z,11.40
2022-11-03T18:45:18.823Z,11.40
2022-11-03T18:47:47.132Z,11.60
2022-11-03T18:50:19.168Z,11.30
2022-11-03T18:52:51.932Z,11.20
2022-11-03T18:55:19.999Z,11.30
2022-11-03T18:57:48.479Z,11.40
2022-11-03T19:00:20.268Z,11.30
2022-11-03T19:02:48.942Z,11.40
2022-11-03T19:05:19.947Z,11.60
2022-11-03T19:07:50.529Z,11.70
2022-11-03T19:10:22.546Z,11.70
2022-11-03T19:12:50.559Z,11.80
2022-11-03T19:15:22.673Z,11.80
2022-11-03T19:17:52.310Z,11.80
2022-11-03T19:20:23.503Z,11.80
2022-11-03T19:22:52.661Z,11.90
2022-11-03T19:25:20.655Z,12.00
2022-11-03T19:27:49.847Z,11.90
2022-11-03T19:30:20.564Z,11.80
2022-11-03T19:32:51.835Z,11.60
2022-11-03T19:35:24.979Z,11.70
2022-11-03T19:38:02.040Z,11.80
2022-11-03T19:40:30.935Z,11.70
2022-11-03T19:42:58.062Z,11.60
2022-11-03T19:45:28.382Z,11.80
2022-11-03T19:50:50.338Z,11.90
2022-11-03T19:53:22.524Z,12.00
2022-11-03T19:55:51.011Z,12.00
2022-11-03T19:58:22.023Z,12.00
2022-11-03T20:00:51.325Z,12.20
2022-11-03T20:03:20.137Z,12.10
2022-11-03T20:05:52.629Z,12.20
2022-11-03T20:08:24.701Z,12.20
2022-11-03T20:10:53.388Z,12.00
2022-11-03T20:13:25.253Z,12.00
2022-11-03T20:16:00.526Z,11.90
2022-11-03T20:18:29.863Z,11.90
2022-11-03T20:20:59.411Z,11.80
2022-11-03T20:23:30.484Z,11.90
2022-11-03T20:25:58.889Z,11.80
2022-11-03T20:28:29.285Z,11.90
2022-11-03T20:30:59.995Z,12.00
2022-11-03T20:33:28.112Z,12.00
2022-11-03T20:35:58.106Z,11.90
2022-11-03T20:38:27.928Z,12.00
2022-11-03T20:40:59.042Z,12.10
2022-11-03T20:43:30.812Z,12.30
2022-11-03T20:45:59.662Z,12.20
2022-11-03T20:48:28.203Z,12.10
2022-11-03T20:50:57.873Z,12.20
2022-11-03T20:53:27.366Z,12.20
2022-11-03T20:55:55.408Z,12.30
2022-11-03T20:58:23.390Z,12.40
2022-11-03T21:00:51.501Z,12.20
2022-11-03T21:03:37.929Z,12.10
2022-11-03T21:06:14.730Z,12.10
2022-11-03T21:08:42.799Z,12.00
2022-11-03T21:11:28.365Z,12.10
2022-11-03T21:13:59.896Z,12.20
2022-11-03T21:16:48.001Z,12.20
2022-11-03T21:19:35.948Z,12.20
2022-11-03T21:25:02.812Z,12.10
2022-11-03T21:27:30.897Z,12.10
2022-11-03T21:29:59.989Z,11.90
2022-11-03T21:32:28.442Z,12.00
2022-11-03T21:34:56.611Z,11.90
2022-11-03T21:37:26.022Z,11.90
2022-11-03T21:39:54.197Z,12.00
2022-11-03T21:42:39.791Z,11.70
2022-11-03T21:45:08.928Z,11.80
2022-11-03T21:47:36.933Z,11.90
2022-11-03T21:50:04.679Z,11.80
2022-11-03T21:52:34.539Z,11.90
2022-11-03T21:55:04.554Z,11.80
2022-11-03T21:57:33.194Z,11.80
2022-11-03T22:00:01.259Z,11.90
2022-11-03T22:02:30.375Z,12.00
2022-11-03T22:04:58.959Z,12.20
2022-11-03T22:07:27.029Z,12.20
2022-11-03T22:09:56.354Z,12.10
2022-11-03T22:12:24.601Z,12.20
2022-11-03T22:15:11.018Z,12.20
2022-11-03T22:17:38.991Z,12.20
2022-11-03T22:20:25.670Z,12.30
2022-11-03T22:23:13.447Z,12.40
2022-11-03T22:26:00.476Z,12.50
2022-11-03T22:28:28.546Z,12.40
2022-11-03T22:31:14.039Z,12.30
2022-11-03T22:33:55.956Z,12.40
2022-11-03T22:36:28.440Z,12.40
2022-11-03T22:39:13.853Z,12.20
2022-11-03T22:41:59.639Z,12.30
2022-11-03T22:44:49.206Z,12.30
2022-11-03T22:47:18.752Z,12.30
2022-11-03T22:49:47.065Z,12.30
2022-11-03T22:52:15.044Z,12.30
2022-11-03T22:54:42.081Z,12.60
2022-11-03T22:57:13.093Z,12.60
2022-11-03T22:59:41.119Z,12.70
2022-11-03T23:02:09.215Z,12.70
2022-11-03T23:04:37.308Z,12.60
2022-11-03T23:07:05.257Z,12.60
2022-11-03T23:09:33.244Z,12.50
2022-11-03T23:12:01.262Z,12.50
2022-11-03T23:14:50.589Z,12.50
2022-11-03T23:17:18.578Z,12.60
2022-11-03T23:20:03.997Z,12.50
2022-11-03T23:22:31.973Z,12.60
2022-11-03T23:25:02.202Z,12.50
2022-11-03T23:27:30.182Z,12.50
2022-11-03T23:29:59.501Z,12.50
2022-11-03T23:32:27.518Z,12.50
2022-11-03T23:34:55.487Z,12.40
2022-11-03T23:37:23.441Z,12.40
2022-11-03T23:39:51.409Z,12.40
2022-11-03T23:42:19.347Z,12.40
2022-11-03T23:45:05.126Z,12.40
2022-11-03T23:47:51.959Z,12.40
2022-11-03T23:50:19.942Z,12.40
2022-11-03T23:52:47.900Z,12.30
2022-11-03T23:55:15.907Z,12.40
2022-11-03T23:58:01.639Z,12.20
